Time;durP1;ratioP1;P1;durP2;ratioP2;P2;SDS_P1;SDS_P2;PMS_P1;PMS_P2;Temp;Humidity;BMP_temperature;BMP_pressure;BME280_temperature;BME280_humidity;BME280_pressure;Samples;Min_cycle;Max_cycle;Signal;HPM_P1;HPM_P2
2022/12/01 00:00:33;;;;;;;66.53;32.70;;;3.90;99.90;;;2.12;100.00;101781.66;5025846;28;20048;-76
2022/12/01 00:02:58;;;;;;;62.03;30.17;;;3.90;99.90;;;2.14;100.00;101786.91;5026077;28;20040;-76
2022/12/01 00:05:24;;;;;;;66.50;32.55;;;3.80;99.90;;;2.14;100.00;101789.59;5024799;28;20048;-75
2022/12/01 00:07:50;;;;;;;68.20;31.73;;;3.80;99.90;;;2.11;100.00;101793.41;5024345;28;20029;-76
2022/12/01 00:10:25;;;;;;;61.72;31.67;;;3.80;99.90;;;2.10;100.00;101797.06;5025196;28;20396;-75
2022/12/01 00:13:03;;;;;;;70.03;33.97;;;3.80;99.90;;;2.09;100.00;101787.28;5021274;28;20036;-75
2022/12/01 00:15:34;;;;;;;;;;;3.80;99.90;;;2.06;100.00;101786.72;5019966;28;20060;-75
2022/12/01 00:18:02;;;;;;;65.95;30.73;;;3.70;99.90;;;2.06;100.00;101782.19;5025982;28;19917;-75
2022/12/01 00:20:28;;;;;;;64.28;31.63;;;3.70;99.90;;;2.01;100.00;101787.97;5024292;28;20044;-75
2022/12/01 00:22:54;;;;;;;68.28;32.88;;;3.70;99.90;;;2.02;100.00;101788.81;5025633;28;20038;-74
2022/12/01 00:25:20;;;;;;;64.13;32.33;;;3.70;99.90;;;1.97;100.00;101785.69;5024355;28;20029;-75
2022/12/01 00:27:51;;;;;;;66.88;32.00;;;3.70;99.90;;;2.03;100.00;101795.06;5024007;28;20491;-74
2022/12/01 00:30:20;;;;;;;67.35;32.88;;;3.70;99.90;;;2.00;100.00;101796.16;5024606;28;20527;-75
2022/12/01 00:32:46;;;;;;;68.65;32.17;;;3.70;99.90;;;2.01;100.00;101787.09;5024154;28;20421;-75
2022/12/01 00:35:14;;;;;;;65.65;31.42;;;3.70;99.90;;;2.01;100.00;101792.50;5025683;28;20033;-75
2022/12/01 00:37:40;;;;;;;73.00;33.83;;;3.70;99.90;;;2.03;100.00;101790.53;5025050;28;20037;-75
2022/12/01 00:40:08;;;;;;;67.93;33.10;;;3.70;99.90;;;1.98;100.00;101782.00;5024695;28;20136;-75
2022/12/01 00:42:33;;;;;;;75.30;35.15;;;3.70;99.90;;;2.09;100.00;101784.59;5023530;28;20049;-75
2022/12/01 00:45:00;;;;;;;69.70;33.35;;;3.80;99.90;;;2.08;100.00;101790.13;5025223;28;20036;-74
2022/12/01 00:47:26;;;;;;;74.35;34.22;;;3.80;99.90;;;2.12;100.00;101794.25;5025123;28;20025;-77
2022/12/01 00:49:52;;;;;;;70.38;33.40;;;3.80;99.90;;;2.10;100.00;101794.38;5025112;28;20037;-75
2022/12/01 00:52:19;;;;;;;70.07;33.05;;;3.80;99.90;;;2.13;100.00;101790.59;5026026;28;20030;-75
2022/12/01 00:54:45;;;;;;;72.00;34.45;;;3.80;99.90;;;2.12;100.00;101792.44;5025030;28;20168;-75
2022/12/01 00:57:12;;;;;;;75.75;33.90;;;3.80;99.90;;;2.12;100.00;101789.75;5024824;28;20025;-75
2022/12/01 00:59:38;;;;;;;75.20;34.88;;;3.80;99.90;;;2.15;100.00;101796.69;5026369;28;20479;-76
2022/12/01 01:02:06;;;;;;;76.50;36.15;;;3.90;99.90;;;2.13;100.00;101793.28;5024003;28;20041;-76
2022/12/01 01:04:34;;;;;;;80.60;35.83;;;3.80;99.90;;;2.15;100.00;101800.25;5025995;28;20407;-75
2022/12/01 01:07:00;;;;;;;68.72;33.65;;;3.90;99.90;;;2.14;100.00;101798.53;5025627;28;20076;-76
2022/12/01 01:09:26;;;;;;;73.78;34.45;;;3.90;99.90;;;2.13;100.00;101796.84;5027542;28;20025;-75
2022/12/01 01:11:53;;;;;;;74.53;35.17;;;3.90;99.90;;;2.14;100.00;101793.16;5027619;28;20033;-75
2022/12/01 01:14:20;;;;;;;75.25;35.17;;;3.80;99.90;;;2.13;100.00;101804.91;5029610;28;20040;-76
2022/12/01 01:16:48;;;;;;;79.22;34.78;;;3.80;99.90;;;2.14;100.00;101800.38;5026641;28;20053;-75
2022/12/01 01:19:16;;;;;;;74.38;34.03;;;3.80;99.90;;;2.12;100.00;101799.66;5024396;28;20168;-76
2022/12/01 01:21:42;;;;;;;76.40;35.20;;;3.80;99.90;;;2.13;100.00;101813.00;5027228;28;20033;-76
2022/12/01 01:24:07;;;;;;;72.68;33.70;;;3.80;99.90;;;2.12;100.00;101810.41;5027842;28;20029;-76
2022/12/01 01:26:34;;;;;;;68.38;33.80;;;3.80;99.90;;;2.06;100.00;101794.81;5028176;28;20030;-75
2022/12/01 01:29:06;;;;;;;75.07;35.37;;;3.90;99.90;;;2.14;100.00;101817.38;5028549;28;20021;-75
2022/12/01 01:31:33;;;;;;;69.55;34.20;;;3.90;99.90;;;2.13;100.00;101813.00;5027199;28;20030;-76
2022/12/01 01:33:59;;;;;;;73.32;34.90;;;3.90;99.90;;;2.13;100.00;101812.13;5028659;28;20033;-76
2022/12/01 01:36:26;;;;;;;73.57;34.33;;;3.90;99.90;;;2.14;100.00;101819.22;5027794;28;20112;-76
2022/12/01 01:38:53;;;;;;;74.33;34.70;;;3.80;99.90;;;2.13;100.00;101813.00;5026612;28;20258;-75
2022/12/01 01:41:21;;;;;;;76.03;35.17;;;3.90;99.90;;;2.12;100.00;101811.28;5025720;28;20716;-76
2022/12/01 01:43:51;;;;;;;79.07;36.13;;;3.90;99.90;;;2.15;100.00;101815.53;5027632;28;20035;-75
2022/12/01 01:46:27;;;;;;;81.43;36.13;;;3.90;99.90;;;2.13;100.00;101817.50;5026991;28;20033;-75
2022/12/01 01:49:13;;;;;;;78.55;36.28;;;3.80;99.90;;;2.11;100.00;101814.94;5023804;28;20440;-75
2022/12/01 01:51:48;;;;;;;73.13;34.58;;;3.90;99.90;;;2.12;100.00;101819.38;5026825;28;20049;-75
2022/12/01 01:54:25;;;;;;;74.43;34.97;;;3.90;99.90;;;2.14;100.00;101817.38;5026555;28;20175;-76
2022/12/01 01:56:54;;;;;;;77.60;36.08;;;3.80;99.90;;;2.15;100.00;101813.72;5022052;28;20037;-75
2022/12/01 01:59:32;;;;;;;74.40;35.10;;;3.90;99.90;;;2.18;100.00;101823.34;5027654;28;20042;-75
2022/12/01 02:02:16;;;;;;;75.00;35.20;;;3.80;99.90;;;2.17;100.00;101818.94;5027328;28;20037;-75
2022/12/01 02:04:50;;;;;;;82.05;36.83;;;3.90;99.90;;;2.17;100.00;101818.94;5027376;28;20344;-75
2022/12/01 02:07:20;;;;;;;76.97;35.75;;;3.90;99.90;;;2.20;100.00;101820.53;5027433;28;20036;-75
2022/12/01 02:09:46;;;;;;;75.72;35.83;;;3.90;99.90;;;2.03;100.00;101790.53;5024754;28;20029;-76
2022/12/01 02:13:02;;;;;;;70.22;35.38;;;3.90;99.90;;;2.16;100.00;101811.84;5023973;28;20036;-76
2022/12/01 02:15:45;;;;;;;74.28;36.70;;;3.90;99.90;;;2.19;100.00;101826.91;5016793;28;20098;-76
2022/12/01 02:18:24;;;;;;;79.72;36.90;;;3.90;99.90;;;2.20;100.00;101823.22;5027774;28;20038;-76
2022/12/01 02:21:20;;;;;;;84.60;38.53;;;3.90;99.90;;;2.18;100.00;101822.50;5026637;28;20026;-76
2022/12/01 02:24:06;;;;;;;86.55;38.83;;;3.90;99.90;;;1.99;100.00;101816.88;5024816;28;20066;-75
2022/12/01 02:26:55;;;;;;;95.45;39.60;;;3.80;99.90;;;1.93;100.00;101824.59;5025851;28;20103;-76
2022/12/01 02:30:09;;;;;;;103.35;41.65;;;3.80;99.90;;;1.78;100.00;101830.31;5022474;28;20025;-75
2022/12/01 02:33:18;;;;;;;111.57;43.30;;;3.60;99.90;;;1.72;100.00;101830.81;5026347;28;20133;-75
2022/12/01 02:36:14;;;;;;;115.70;42.75;;;3.60;99.90;;;1.64;100.00;101825.25;5026780;28;20030;-75
2022/12/01 02:39:16;;;;;;;122.35;45.72;;;3.50;99.90;;;1.36;100.00;101800.66;5025871;28;20044;-76
2022/12/01 02:41:50;;;;;;;122.40;44.15;;;3.40;99.90;;;1.53;100.00;101832.34;5020343;28;20557;-76
2022/12/01 02:44:21;;;;;;;132.07;47.65;;;3.40;99.90;;;1.51;100.00;101825.41;5024497;28;20057;-75
2022/12/01 02:47:04;;;;;;;130.30;46.58;;;3.30;99.90;;;1.44;100.00;101831.28;5020529;28;20103;-75
2022/12/01 02:49:39;;;;;;;137.88;48.63;;;3.30;99.90;;;1.43;100.00;101826.88;5025701;28;20025;-76
2022/12/01 02:52:05;;;;;;;142.32;49.30;;;3.30;99.90;;;1.43;100.00;101826.06;5022800;28;20061;-76
2022/12/01 02:54:33;;;;;;;147.07;48.22;;;3.30;99.90;;;1.41;100.00;101834.22;5025835;28;20033;-75
2022/12/01 02:56:59;;;;;;;145.32;49.72;;;3.20;99.90;;;1.39;100.00;101821.91;5027688;28;20029;-75
2022/12/01 02:59:25;;;;;;;158.75;50.13;;;3.20;99.90;;;1.32;100.00;101835.00;5027063;28;20043;-76
2022/12/01 03:02:31;;;;;;;163.70;51.25;;;3.20;99.90;;;1.27;100.00;101827.31;5026203;28;20041;-76
2022/12/01 03:04:59;;;;;;;162.10;49.55;;;3.10;99.90;;;1.24;100.00;101830.25;5023808;28;20633;-76
2022/12/01 03:08:00;;;;;;;150.45;48.97;;;3.10;99.90;;;1.22;100.00;101824.16;5026178;28;20030;-76
2022/12/01 03:10:55;;;;;;;150.65;48.33;;;3.10;99.90;;;1.21;100.00;101829.69;5021251;28;20044;-76
2022/12/01 03:13:56;;;;;;;162.90;51.70;;;3.00;99.90;;;1.17;100.00;101830.88;5024523;28;20033;-76
2022/12/01 03:16:49;;;;;;;166.05;49.75;;;3.00;99.90;;;1.19;100.00;101826.22;5026347;28;20040;-76
2022/12/01 03:19:40;;;;;;;140.25;45.78;;;3.00;99.90;;;1.16;100.00;101821.97;5024170;28;20043;-74
2022/12/01 03:22:27;;;;;;;161.48;49.20;;;3.00;99.90;;;1.19;100.00;101827.09;5020067;28;20030;-74
2022/12/01 03:24:56;;;;;;;164.27;49.00;;;3.00;99.90;;;1.17;100.00;101828.19;5024232;28;20030;-75
2022/12/01 03:27:29;;;;;;;165.00;49.80;;;3.00;99.90;;;1.16;100.00;101832.72;5025103;28;20057;-75
2022/12/01 03:30:00;;;;;;;153.77;49.15;;;3.00;99.90;;;1.07;100.00;101825.44;5025881;28;20369;-75
2022/12/01 03:32:33;;;;;;;149.07;48.10;;;3.00;99.90;;;1.15;100.00;101833.72;5026519;28;20035;-75
2022/12/01 03:35:09;;;;;;;151.68;49.08;;;3.00;99.90;;;1.10;100.00;101826.00;5026050;28;20102;-74
2022/12/01 03:38:07;;;;;;;172.45;49.17;;;2.90;99.90;;;1.09;100.00;101831.53;5021885;28;20038;-75
2022/12/01 03:40:37;;;;;;;164.30;48.42;;;3.00;99.90;;;1.11;100.00;101833.09;5023033;28;20036;-75
2022/12/01 03:43:10;;;;;;;152.85;48.97;;;2.90;99.90;;;1.07;100.00;101830.81;5025058;28;20050;-74
2022/12/01 03:45:54;;;;;;;148.32;46.45;;;2.90;99.90;;;1.08;100.00;101836.03;5024073;28;20033;-75
2022/12/01 03:48:23;;;;;;;149.65;46.35;;;2.90;99.90;;;1.10;100.00;101833.25;5024089;28;20049;-74
2022/12/01 03:51:09;;;;;;;139.82;44.55;;;2.90;99.90;;;1.12;100.00;101842.88;5025638;28;20029;-74
2022/12/01 03:54:00;;;;;;;138.18;44.30;;;2.90;99.90;;;1.15;100.00;101836.41;5024564;28;20052;-74
2022/12/01 03:56:37;;;;;;;135.02;43.60;;;2.90;99.90;;;1.11;100.00;101818.81;5023158;28;20061;-75
2022/12/01 03:59:07;;;;;;;144.60;44.65;;;3.00;99.90;;;1.11;100.00;101826.88;5021132;28;20033;-74
2022/12/01 04:01:33;;;;;;;146.00;45.88;;;3.00;99.90;;;1.07;100.00;101826.28;5025032;28;20026;-75
2022/12/01 04:04:06;;;;;;;135.23;43.47;;;2.90;99.90;;;1.03;100.00;101829.31;5025370;28;20518;-75
2022/12/01 04:06:33;;;;;;;127.45;40.90;;;2.90;99.90;;;0.99;100.00;101832.25;5021426;28;20049;-75
2022/12/01 04:08:58;;;;;;;134.57;41.70;;;2.80;99.90;;;0.99;100.00;101839.50;5024834;28;20033;-74
2022/12/01 04:14:09;;;;;;;119.65;39.05;;;2.80;99.90;;;0.90;100.00;101833.00;5026412;28;20395;-75
2022/12/01 04:16:35;;;;;;;121.95;39.20;;;2.80;99.90;;;0.90;100.00;101841.06;5025769;28;20041;-75
2022/12/01 04:19:01;;;;;;;119.78;39.30;;;2.80;99.90;;;0.92;100.00;101839.13;5019920;28;20037;-75
2022/12/01 04:21:26;;;;;;;122.05;38.60;;;2.70;99.90;;;0.76;100.00;101823.38;5024549;28;20267;-75
2022/12/01 04:24:01;;;;;;;130.93;39.85;;;2.70;99.90;;;0.88;100.00;101847.53;5019795;28;20033;-75
2022/12/01 04:26:35;;;;;;;122.85;38.45;;;2.70;99.90;;;0.79;100.00;101831.19;5025890;28;20037;-75
2022/12/01 04:29:04;;;;;;;120.05;40.03;;;2.70;99.90;;;0.89;100.00;101844.75;5020042;28;20041;-75
2022/12/01 04:31:30;;;;;;;129.25;40.80;;;2.70;99.90;;;0.90;100.00;101846.44;5025312;28;20041;-76
2022/12/01 04:33:58;;;;;;;121.93;39.75;;;2.70;99.90;;;0.91;100.00;101856.22;5023981;28;20030;-76
2022/12/01 04:36:25;;;;;;;114.20;39.35;;;2.70;99.90;;;0.80;100.00;101838.28;5024602;28;20412;-75
2022/12/01 04:38:51;;;;;;;119.60;38.95;;;2.70;99.90;;;0.89;100.00;101847.44;5025638;28;20053;-75
2022/12/01 04:41:18;;;;;;;111.78;37.70;;;2.70;99.90;;;0.90;100.00;101853.66;5025341;28;20033;-75
2022/12/01 04:43:43;;;;;;;108.78;36.75;;;2.70;99.90;;;0.90;100.00;101846.44;5025956;28;20095;-75
2022/12/01 04:46:10;;;;;;;110.10;37.67;;;2.70;99.90;;;0.92;100.00;101852.56;5030104;28;20033;-75
2022/12/01 04:48:39;;;;;;;99.60;35.80;;;2.70;99.90;;;0.89;100.00;101847.44;5028843;28;20045;-74
2022/12/01 04:51:07;;;;;;;104.03;37.92;;;2.70;99.90;;;0.92;100.00;101849.88;5028275;28;20108;-75
2022/12/01 04:53:34;;;;;;;;;;;2.70;99.90;;;0.91;100.00;101853.53;5027654;28;20095;-75
2022/12/01 04:56:00;;;;;;;113.28;38.08;;;2.70;99.90;;;0.88;100.00;101842.16;5029429;28;19913;-74
2022/12/01 04:58:32;;;;;;;112.57;38.88;;;2.70;99.90;;;0.89;100.00;101850.13;5029196;28;20033;-76
2022/12/01 05:01:09;;;;;;;106.00;38.78;;;2.70;99.90;;;0.88;100.00;101847.53;5027934;28;20037;-75
2022/12/01 05:03:44;;;;;;;104.10;35.10;;;2.70;99.90;;;0.90;100.00;101859.03;5027659;28;20033;-76
2022/12/01 05:06:13;;;;;;;109.95;37.17;;;2.70;99.90;;;0.89;100.00;101866.25;5027051;28;20037;-75
2022/12/01 05:08:40;;;;;;;103.95;36.35;;;2.70;99.90;;;0.79;100.00;101854.50;5023272;28;20083;-75
2022/12/01 05:11:08;;;;;;;102.75;34.75;;;2.60;99.90;;;0.79;100.00;101865.25;5026278;28;20142;-75
2022/12/01 05:13:43;;;;;;;109.30;37.35;;;2.60;99.90;;;0.76;100.00;101866.38;5027238;28;20137;-75
2022/12/01 05:16:14;;;;;;;106.57;34.63;;;2.60;99.90;;;0.73;100.00;101871.13;5028394;28;20049;-75
2022/12/01 05:18:41;;;;;;;105.47;37.05;;;2.50;99.90;;;0.72;100.00;101870.28;5028034;28;20397;-75
2022/12/01 05:21:09;;;;;;;109.90;36.90;;;2.50;99.90;;;0.70;100.00;101872.25;5028665;28;20095;-75
2022/12/01 05:23:37;;;;;;;113.40;36.42;;;2.50;99.90;;;0.69;100.00;101876.75;5027995;28;20032;-75
2022/12/01 05:26:06;;;;;;;106.97;35.22;;;2.50;99.90;;;0.67;100.00;101872.47;5022746;28;20098;-75
2022/12/01 05:28:32;;;;;;;110.13;34.28;;;2.50;99.90;;;0.68;100.00;101875.03;5027616;28;20041;-75
2022/12/01 05:30:58;;;;;;;110.97;35.15;;;2.50;99.90;;;0.65;100.00;101877.97;5028243;28;20049;-75
2022/12/01 05:33:26;;;;;;;91.18;31.45;;;2.50;99.90;;;0.64;100.00;101872.69;5027439;28;20026;-75
2022/12/01 05:35:52;;;;;;;100.68;33.78;;;2.40;99.90;;;0.68;100.00;101884.94;5025181;28;20052;-75
2022/12/01 05:38:18;;;;;;;98.00;32.35;;;2.50;99.90;;;0.68;100.00;101890.31;5027209;28;20037;-75
2022/12/01 05:40:52;;;;;;;97.93;32.80;;;2.50;99.90;;;0.68;100.00;101888.47;5026795;28;20036;-75
2022/12/01 05:43:20;;;;;;;90.85;31.10;;;2.50;99.90;;;0.68;100.00;101891.16;5025117;28;20049;-76
2022/12/01 05:45:46;;;;;;;;;;;2.50;99.90;;;0.47;100.00;101861.47;5028185;28;20037;-75
2022/12/01 05:48:12;;;;;;;103.72;34.15;;;2.50;99.90;;;0.61;100.00;101881.88;5027453;28;19913;-75
2022/12/01 05:50:39;;;;;;;102.00;33.17;;;2.50;99.90;;;0.62;100.00;101891.63;5028075;28;20626;-75
2022/12/01 05:53:06;;;;;;;99.13;31.58;;;2.40;99.90;;;0.59;100.00;101897.25;5026892;28;20029;-75
2022/12/01 05:55:35;;;;;;;93.30;32.63;;;2.40;99.90;;;0.59;100.00;101894.56;5027646;28;20030;-75
2022/12/01 05:58:01;;;;;;;89.07;29.85;;;2.40;99.90;;;0.61;100.00;101897.13;5022622;28;20287;-75
2022/12/01 06:00:27;;;;;;;96.53;32.42;;;2.40;99.90;;;0.56;100.00;101894.81;5021291;28;20087;-75
2022/12/01 06:02:53;;;;;;;90.03;32.03;;;2.40;99.90;;;0.54;100.00;101900.28;5021437;28;20129;-75
2022/12/01 06:05:19;;;;;;;91.97;31.30;;;2.40;99.90;;;0.49;100.00;101897.13;5027807;28;20049;-77
2022/12/01 06:07:45;;;;;;;99.88;31.25;;;2.30;99.90;;;0.50;100.00;101898.84;5027715;28;20021;-77
2022/12/01 06:10:11;;;;;;;94.18;31.50;;;2.40;99.90;;;0.53;100.00;101906.66;5026726;28;20112;-77
2022/12/01 06:12:37;;;;;;;97.57;32.70;;;2.30;99.90;;;0.55;100.00;101912.75;5028127;28;20026;-77
2022/12/01 06:15:05;;;;;;;87.85;30.67;;;2.40;99.90;;;0.60;100.00;101915.09;5026725;28;20025;-77
2022/12/01 06:17:32;;;;;;;89.00;31.48;;;2.40;99.90;;;0.63;100.00;101922.03;5022371;28;20171;-78
2022/12/01 06:19:58;;;;;;;91.43;30.15;;;2.40;99.90;;;0.60;100.00;101915.09;5026206;28;20113;-76
2022/12/01 06:22:24;;;;;;;85.22;30.20;;;2.40;99.90;;;0.57;100.00;101915.31;5027168;28;20120;-77
2022/12/01 06:24:50;;;;;;;84.85;31.77;;;2.40;99.90;;;0.60;100.00;101920.47;5026867;28;20113;-77
2022/12/01 06:27:16;;;;;;;91.15;30.90;;;2.40;99.90;;;0.61;100.00;101916.78;5024165;28;20468;-77
2022/12/01 06:29:42;;;;;;;88.97;30.42;;;2.40;99.90;;;0.63;100.00;101916.66;5023649;28;20026;-77
2022/12/01 06:32:07;;;;;;;81.85;28.85;;;2.40;99.90;;;0.62;100.00;101926.56;5024588;28;20057;-77
2022/12/01 06:34:33;;;;;;;95.25;30.15;;;2.40;99.90;;;0.65;100.00;101928.13;5025909;28;20040;-77
2022/12/01 06:36:59;;;;;;;84.85;28.45;;;2.40;99.90;;;0.66;100.00;101928.03;5026519;28;20029;-78
2022/12/01 06:39:24;;;;;;;84.80;28.40;;;2.40;99.90;;;0.69;100.00;101935.00;5025198;28;20177;-78
2022/12/01 06:41:50;;;;;;;83.93;29.42;;;2.40;99.90;;;0.66;100.00;101933.41;5026697;28;20491;-77
2022/12/01 06:44:16;;;;;;;84.25;29.25;;;2.40;99.90;;;0.67;100.00;101932.41;5025665;28;20040;-76
2022/12/01 06:46:42;;;;;;;78.15;28.05;;;2.40;99.90;;;0.66;100.00;101930.72;5027657;28;20036;-78
2022/12/01 06:49:12;;;;;;;80.10;29.00;;;2.40;99.90;;;0.64;100.00;101938.03;5025982;28;20099;-76
2022/12/01 06:51:38;;;;;;;80.10;28.65;;;2.40;99.90;;;0.65;100.00;101939.75;5026581;28;20025;-76
2022/12/01 06:54:04;;;;;;;76.70;28.38;;;2.40;99.90;;;0.66;100.00;101944.16;5023619;28;20116;-76
2022/12/01 06:56:30;;;;;;;80.10;29.42;;;2.40;99.90;;;0.67;100.00;101942.34;5026752;28;20073;-76
2022/12/01 06:58:56;;;;;;;82.97;30.02;;;2.40;99.90;;;0.65;100.00;101949.63;5026135;28;20034;-75
2022/12/01 07:01:22;;;;;;;76.40;28.38;;;2.40;99.90;;;0.59;100.00;101939.38;5025862;28;20034;-76
2022/12/01 07:03:50;;;;;;;83.30;28.42;;;2.40;99.90;;;0.57;100.00;101936.81;5033991;28;20037;-75
2022/12/01 07:06:16;;;;;;;79.68;29.73;;;2.40;99.90;;;0.58;100.00;101954.63;5025612;28;20553;-75
2022/12/01 07:08:43;;;;;;;83.70;28.88;;;2.40;99.90;;;0.58;100.00;101949.28;5025686;28;20057;-76
2022/12/01 07:11:12;;;;;;;74.55;27.27;;;2.40;99.90;;;0.62;100.00;101949.88;5026033;28;20036;-74
2022/12/01 07:13:44;;;;;;;76.70;29.38;;;2.40;99.90;;;0.57;100.00;101945.72;5020102;28;20107;-76
2022/12/01 07:16:11;;;;;;;77.10;28.02;;;2.40;99.90;;;0.57;100.00;101950.25;5023332;28;20124;-75
2022/12/01 07:18:37;;;;;;;86.22;29.05;;;2.30;99.90;;;0.50;100.00;101943.63;5022434;28;20351;-76
2022/12/01 07:21:12;;;;;;;85.93;29.88;;;2.30;99.90;;;0.49;100.00;101949.97;5025466;28;20399;-75
2022/12/01 07:23:38;;;;;;;88.30;30.30;;;2.30;99.90;;;0.45;100.00;101944.00;5025603;28;20222;-75
2022/12/01 07:26:10;;;;;;;97.65;30.05;;;2.30;99.90;;;0.47;100.00;101943.84;5027800;28;20072;-75
2022/12/01 07:28:37;;;;;;;95.80;32.28;;;2.30;99.90;;;0.52;100.00;101947.03;5021288;28;20096;-75
2022/12/01 07:31:12;;;;;;;87.50;29.00;;;2.30;99.90;;;0.51;100.00;101943.50;5024203;28;20030;-75
2022/12/01 07:33:38;;;;;;;90.45;29.40;;;2.30;99.90;;;0.56;100.00;101945.84;5022916;28;20127;-76
2022/12/01 07:36:05;;;;;;;84.80;27.98;;;2.40;99.90;;;0.61;100.00;101948.16;5024819;28;20488;-76
2022/12/01 07:38:33;;;;;;;80.95;27.55;;;2.40;99.90;;;0.68;100.00;101955.63;5026799;28;20399;-76
2022/12/01 07:41:14;;;;;;;82.50;26.83;;;2.50;99.90;;;0.73;100.00;101951.72;5025472;28;20033;-75
2022/12/01 07:43:40;;;;;;;75.65;26.42;;;2.50;99.90;;;0.78;100.00;101958.44;5027145;28;20034;-78
2022/12/01 07:46:13;;;;;;;77.72;27.27;;;2.60;99.90;;;0.81;100.00;101962.75;5030923;28;20468;-78
2022/12/01 07:48:40;;;;;;;78.80;27.10;;;2.60;99.90;;;0.78;100.00;101958.44;5025548;28;20026;-77
2022/12/01 07:51:10;;;;;;;78.93;28.07;;;2.60;99.90;;;0.76;100.00;101949.66;5023964;28;20021;-80
2022/12/01 07:53:36;;;;;;;70.68;25.52;;;2.60;99.90;;;0.81;100.00;101965.44;5025329;28;20037;-81
2022/12/01 07:56:04;;;;;;;70.20;26.45;;;2.60;99.90;;;0.78;100.00;101971.88;5027162;28;20033;-82
2022/12/01 07:58:31;;;;;;;73.05;26.40;;;2.60;99.90;;;0.74;100.00;101975.78;5026039;28;20095;-78
2022/12/01 08:00:57;;;;;;;73.65;24.80;;;2.60;99.90;;;0.66;100.00;101979.06;5026463;28;20099;-78
2022/12/01 08:03:23;;;;;;;73.55;26.08;;;2.50;99.90;;;0.57;100.00;101969.03;5024916;28;20129;-77
2022/12/01 08:05:57;;;;;;;78.50;25.80;;;2.50;99.90;;;0.56;100.00;101967.34;5025202;28;20120;-77
2022/12/01 08:08:24;;;;;;;80.55;27.50;;;2.40;99.90;;;0.61;100.00;101977.69;5022006;28;20433;-78
2022/12/01 08:10:51;;;;;;;71.45;26.38;;;2.40;99.90;;;0.60;100.00;101973.31;5025189;28;20674;-77
2022/12/01 08:13:17;;;;;;;73.50;27.08;;;2.40;99.90;;;0.63;100.00;101982.00;5024882;28;20038;-78
2022/12/01 08:15:43;;;;;;;75.75;26.63;;;2.50;99.90;;;0.63;100.00;101979.31;5026646;28;20561;-76
2022/12/01 08:18:09;;;;;;;70.55;25.48;;;2.50;99.90;;;0.63;100.00;101981.13;5029685;28;20116;-77
2022/12/01 08:20:34;;;;;;;75.93;25.33;;;2.50;99.90;;;0.63;100.00;101990.06;5030164;28;20030;-76
2022/12/01 08:23:01;;;;;;;72.45;24.42;;;2.50;99.90;;;0.60;100.00;101990.28;5029556;28;20477;-76
2022/12/01 08:25:28;;;;;;;67.95;23.52;;;2.50;99.90;;;0.62;100.00;101998.22;5029094;28;20036;-76
2022/12/01 08:27:54;;;;;;;84.30;28.70;;;2.50;99.90;;;0.66;100.00;101991.63;5029769;28;20033;-77
2022/12/01 08:30:20;;;;;;;98.07;29.88;;;2.50;99.90;;;0.70;100.00;101995.81;5028153;28;20760;-76
2022/12/01 08:32:46;;;;;;;95.95;31.05;;;2.50;99.90;;;0.73;100.00;101997.38;5030260;28;20033;-77
2022/12/01 08:35:12;;;;;;;93.28;31.02;;;2.50;99.90;;;0.73;100.00;101989.31;5028427;28;20095;-75
2022/12/01 08:37:38;;;;;;;93.78;30.13;;;2.60;99.90;;;0.75;100.00;101987.38;5027779;28;20038;-75
2022/12/01 08:40:04;;;;;;;78.13;27.48;;;2.60;99.90;;;0.76;100.00;101991.78;5025990;28;20048;-75
2022/12/01 08:42:30;;;;;;;79.07;28.00;;;2.60;99.90;;;0.82;100.00;102002.91;5023949;28;20053;-74
2022/12/01 08:44:56;;;;;;;82.72;27.85;;;2.60;99.90;;;0.78;100.00;102003.25;5023910;28;20068;-76
2022/12/01 08:47:21;;;;;;;84.43;28.42;;;2.60;99.90;;;0.86;100.00;102011.59;5027789;28;20549;-75
2022/12/01 08:49:47;;;;;;;84.72;27.20;;;2.70;99.90;;;0.84;100.00;102009.00;5029133;28;20041;-77
2022/12/01 08:52:13;;;;;;;81.00;27.90;;;2.70;99.90;;;0.87;100.00;102007.94;5026044;28;20095;-75
2022/12/01 08:54:39;;;;;;;82.32;27.15;;;2.70;99.90;;;0.91;100.00;102014.78;5028242;28;20068;-76
2022/12/01 08:57:05;;;;;;;81.68;26.67;;;2.70;99.90;;;0.90;100.00;102012.19;5028455;28;20091;-76
2022/12/01 08:59:31;;;;;;;79.75;26.90;;;2.70;99.90;;;0.78;100.00;101992.50;5027965;28;20539;-76
2022/12/01 09:01:56;;;;;;;72.93;25.25;;;2.70;99.90;;;0.88;100.00;102006.97;5028417;28;20113;-75
2022/12/01 09:04:25;;;;;;;80.90;26.80;;;2.70;99.90;;;0.96;100.00;102015.28;5027102;28;20104;-76
2022/12/01 09:06:54;;;;;;;75.30;25.88;;;2.70;99.90;;;0.96;100.00;102004.50;5025578;28;20040;-77
2022/12/01 09:09:27;;;;;;;75.50;25.45;;;2.80;99.90;;;1.01;100.00;102014.91;5028948;28;20383;-76
2022/12/01 09:11:54;;;;;;;80.07;27.98;;;2.80;99.90;;;0.97;100.00;102018.81;5024041;28;20099;-77
2022/12/01 09:14:22;;;;;;;77.03;26.90;;;2.80;99.90;;;0.97;100.00;102027.72;5028817;28;20053;-76
2022/12/01 09:16:49;;;;;;;85.63;27.50;;;2.70;99.90;;;0.94;100.00;102025.28;5028528;28;20037;-76
2022/12/01 09:19:18;;;;;;;78.55;27.40;;;2.70;99.90;;;0.96;100.00;102020.63;5027886;28;20377;-76
2022/12/01 09:21:45;;;;;;;78.38;25.50;;;2.80;99.90;;;1.00;100.00;102019.41;5028531;28;20045;-76
2022/12/01 09:24:14;;;;;;;77.07;26.90;;;2.70;99.90;;;1.02;100.00;102030.06;5027423;28;20041;-77
2022/12/01 09:26:41;;;;;;;71.82;27.05;;;2.80;99.90;;;1.07;100.00;102033.25;5026777;28;20510;-75
2022/12/01 09:29:12;;;;;;;82.07;28.05;;;2.90;99.90;;;1.13;100.00;102027.38;5028169;28;20125;-77
2022/12/01 09:31:39;;;;;;;79.85;27.50;;;2.90;99.90;;;1.19;100.00;102030.56;5027146;28;20021;-77
2022/12/01 09:34:15;;;;;;;80.18;28.63;;;3.00;99.90;;;1.24;100.00;102029.22;5031116;28;20034;-77
2022/12/01 09:36:42;;;;;;;83.03;27.48;;;3.00;99.90;;;1.24;100.00;102023.84;5016297;28;20030;-76
2022/12/01 09:39:17;;;;;;;86.50;27.90;;;3.00;99.90;;;1.21;100.00;102018.72;5029806;28;20068;-76
2022/12/01 09:42:12;;;;;;;82.22;27.40;;;3.00;99.90;;;1.28;100.00;102017.25;5028537;28;20044;-76
2022/12/01 09:44:50;;;;;;;81.35;27.08;;;3.10;99.90;;;1.30;100.00;102011.75;5027304;28;20036;-74
2022/12/01 09:47:25;;;;;;;83.80;28.50;;;3.10;99.90;;;1.33;100.00;102007.97;5027802;28;20120;-74
2022/12/01 09:50:11;;;;;;;83.82;28.13;;;3.10;99.90;;;1.39;100.00;102012.84;5028226;28;20602;-74
2022/12/01 09:52:59;;;;;;;81.35;28.60;;;3.20;99.90;;;1.44;100.00;102011.50;5023467;28;20120;-74
2022/12/01 09:55:29;;;;;;;85.28;28.50;;;3.20;99.90;;;1.53;100.00;102009.06;5028788;28;20124;-74
2022/12/01 09:57:58;;;;;;;90.43;28.73;;;3.30;99.90;;;1.52;100.00;102007.34;5027399;28;20065;-74
2022/12/01 10:00:31;;;;;;;90.18;29.48;;;3.30;99.90;;;1.54;100.00;102008.91;5028143;28;20033;-74
2022/12/01 10:03:44;;;;;;;83.88;28.48;;;3.30;99.90;;;1.65;100.00;102005.38;5028102;28;20033;-74
2022/12/01 10:06:26;;;;;;;78.35;25.52;;;3.40;99.90;;;1.71;100.00;102007.53;5023934;28;20030;-74
2022/12/01 10:09:33;;;;;;;67.50;24.90;;;3.50;99.90;;;1.69;100.00;102003.28;5027197;28;20455;-74
2022/12/01 10:12:21;;;;;;;65.28;24.60;;;3.50;99.90;;;1.62;100.00;102011.00;5027628;28;20072;-74
2022/12/01 10:14:48;;;;;;;64.53;24.40;;;3.50;99.90;;;1.65;100.00;102001.84;5027654;28;20026;-73
2022/12/01 10:17:38;;;;;;;61.65;23.13;;;3.40;99.90;;;1.69;100.00;102000.59;5027451;28;20071;-73
2022/12/01 10:20:43;;;;;;;61.42;23.42;;;3.50;99.90;;;1.75;100.00;102002.78;5024531;28;20029;-74
2022/12/01 10:23:32;;;;;;;63.72;22.85;;;3.50;99.90;;;1.74;100.00;102001.06;5026320;28;20045;-73
2022/12/01 10:26:22;;;;;;;68.40;25.48;;;3.50;99.90;;;1.72;100.00;101998.53;5022704;28;20124;-74